Time;durP1;ratioP1;P1;durP2;ratioP2;P2;SDS_P1;SDS_P2;PMS_P1;PMS_P2;Temp;Humidity;BMP_temperature;BMP_pressure;BME280_temperature;BME280_humidity;BME280_pressure;Samples;Min_cycle;Max_cycle;Signal;HPM_P1;HPM_P2
2022/04/11 00:00:41;;;;;;;0.20;0.10;;;;;;;2.51;100.00;100697.06;5028131;28;20453;-51
2022/04/11 00:03:07;;;;;;;0.20;0.10;;;;;;;2.58;100.00;100700.63;5053645;28;20508;-51
2022/04/11 00:05:34;;;;;;;0.20;0.10;;;;;;;2.46;100.00;100693.50;5053970;28;20471;-52
2022/04/11 00:08:01;;;;;;;0.20;0.10;;;;;;;2.36;100.00;100686.41;5054102;28;20450;-50
2022/04/11 00:10:27;;;;;;;0.20;0.20;;;;;;;2.32;100.00;100689.84;5054030;28;20450;-50
2022/04/11 00:13:05;;;;;;;0.20;0.10;;;;;;;2.33;100.00;100683.72;5054057;28;20447;-50
2022/04/11 00:15:38;;;;;;;2.43;2.43;;;;;;;2.15;100.00;100688.78;5053992;28;20466;-51
2022/04/11 00:18:06;;;;;;;2.43;2.33;;;;;;;2.19;100.00;100690.56;5053582;28;20493;-51
2022/04/11 00:20:33;;;;;;;0.20;0.10;;;;;;;2.18;100.00;100689.69;5048102;28;20456;-51
2022/04/11 00:23:00;;;;;;;0.20;0.10;;;;;;;2.24;100.00;100688.91;5049142;28;20466;-50
2022/04/11 00:25:27;;;;;;;0.20;0.10;;;;;;;2.25;100.00;100681.03;5053264;28;20506;-51
2022/04/11 00:27:53;;;;;;;0.20;0.10;;;;;;;2.35;100.00;100684.66;5053608;28;20450;-51
2022/04/11 00:30:20;;;;;;;0.30;0.30;;;;;;;2.47;100.00;100678.63;5053639;28;20508;-51
2022/04/11 00:32:46;;;;;;;0.20;0.10;;;;;;;2.29;100.00;100679.31;5053144;28;20451;-51
2022/04/11 00:35:13;;;;;;;0.20;0.10;;;;;;;2.21;100.00;100670.50;5053459;28;21045;-51
2022/04/11 00:37:40;;;;;;;0.20;0.10;;;;;;;2.16;100.00;100672.19;5051137;28;20960;-51
2022/04/11 00:40:09;;;;;;;0.20;0.10;;;;;;;2.19;100.00;100677.44;5053230;28;20477;-51
2022/04/11 00:42:37;;;;;;;0.20;0.10;;;;;;;2.27;100.00;100673.19;5043176;28;20812;-51
2022/04/11 00:45:05;;;;;;;0.20;0.20;;;;;;;2.44;100.00;100670.75;5052979;28;20995;-51
2022/04/11 00:47:32;;;;;;;0.20;0.10;;;;;;;2.09;100.00;100655.50;5035408;28;20485;-52
2022/04/11 00:50:09;;;;;;;2.53;2.47;;;;;;;2.22;100.00;100659.16;5042300;28;20482;-51
2022/04/11 00:52:40;;;;;;;0.20;0.13;;;;;;;2.27;100.00;100662.69;5052806;28;20435;-51
2022/04/11 00:55:07;;;;;;;0.20;0.10;;;;;;;2.33;100.00;100658.41;5052890;28;20458;-50
2022/04/11 00:57:34;;;;;;;0.30;0.20;;;;;;;2.45;100.00;100657.63;5053481;28;20442;-50
2022/04/11 01:00:04;;;;;;;0.20;0.10;;;;;;;2.54;100.00;100651.59;5053101;28;20454;-50
2022/04/11 01:02:30;;;;;;;0.20;0.20;;;;;;;2.48;100.00;100651.56;5052965;28;20454;-51
2022/04/11 01:04:57;;;;;;;0.20;0.10;;;;;;;2.73;100.00;100655.28;5053224;28;20499;-51
2022/04/11 01:07:24;;;;;;;0.20;0.10;;;;;;;2.59;100.00;100653.41;5053220;28;20501;-51
2022/04/11 01:09:51;;;;;;;0.20;0.10;;;;;;;2.53;100.00;100649.84;5054053;28;20446;-50
2022/04/11 01:12:18;;;;;;;0.20;0.10;;;;;;;2.54;100.00;100660.38;5052811;28;20487;-50
2022/04/11 01:14:45;;;;;;;0.20;0.20;;;;;;;2.53;100.00;100652.47;5053245;28;20501;-50
2022/04/11 01:17:11;;;;;;;0.20;0.20;;;;;;;2.40;100.00;100651.47;5053036;28;20870;-50
2022/04/11 01:19:38;;;;;;;0.53;0.53;;;;;;;2.40;100.00;100653.22;5053575;28;20871;-49
2022/04/11 01:22:05;;;;;;;0.20;0.20;;;;;;;2.39;100.00;100654.97;5043845;28;20469;-50
2022/04/11 01:24:32;;;;;;;0.20;0.10;;;;;;;2.58;100.00;100659.50;5053189;28;20486;-50
2022/04/11 01:26:59;;;;;;;0.20;0.10;;;;;;;2.61;100.00;100658.69;5054465;28;20475;-49
2022/04/11 01:29:27;;;;;;;0.97;0.97;;;;;;;2.64;100.00;100656.97;5065152;28;20518;-50
2022/04/11 01:31:54;;;;;;;0.20;0.20;;;;;;;2.65;100.00;100663.97;5066903;28;20472;-50
2022/04/11 01:34:21;;;;;;;0.20;0.10;;;;;;;2.60;100.00;100656.91;5062263;28;21370;-49
2022/04/11 01:36:48;;;;;;;0.20;0.10;;;;;;;2.70;100.00;100655.25;5061108;28;20494;-50
2022/04/11 01:39:14;;;;;;;0.20;0.10;;;;;;;2.67;100.00;100643.00;5068414;28;20443;-50
2022/04/11 01:41:41;;;;;;;0.20;0.10;;;;;;;2.66;100.00;100649.97;5056703;28;20474;-50
2022/04/11 01:44:08;;;;;;;1.17;1.17;;;;;;;2.70;100.00;100650.88;5051077;28;20513;-50
2022/04/11 01:46:34;;;;;;;0.20;0.10;;;;;;;2.77;100.00;100641.34;5067884;28;20479;-51
2022/04/11 01:49:01;;;;;;;0.20;0.20;;;;;;;2.63;100.00;100641.22;5074917;28;20500;-51
2022/04/11 01:51:27;;;;;;;0.20;0.20;;;;;;;2.67;100.00;100633.38;5070679;28;20458;-51
2022/04/11 01:53:54;;;;;;;0.20;0.10;;;;;;;2.65;100.00;100632.47;5066424;28;20508;-50
2022/04/11 01:56:20;;;;;;;0.20;0.10;;;;;;;2.65;100.00;100632.47;5056031;28;20466;-50
2022/04/11 01:58:47;;;;;;;0.20;0.10;;;;;;;2.74;100.00;100630.78;5056144;28;20481;-50
2022/04/11 02:01:18;;;;;;;0.20;0.10;;;;;;;2.64;100.00;100625.47;5056306;28;20454;-50
2022/04/11 02:03:45;;;;;;;0.30;0.20;;;;;;;2.61;100.00;100629.84;5055617;28;20486;-50
2022/04/11 02:06:11;;;;;;;0.20;0.10;;;;;;;2.72;100.00;100624.66;5055810;28;20479;-52
2022/04/11 02:08:38;;;;;;;2.00;0.80;;;;;;;2.78;100.00;100620.34;5056984;28;20446;-50
2022/04/11 02:11:05;;;;;;;0.20;0.20;;;;;;;2.70;100.00;100631.63;5056165;28;20860;-50
2022/04/11 02:13:32;;;;;;;0.20;0.10;;;;;;;2.75;100.00;100632.56;5055796;28;20484;-49
2022/04/11 02:15:59;;;;;;;0.20;0.10;;;;;;;2.61;100.00;100641.19;5055636;28;20498;-50
2022/04/11 02:18:27;;;;;;;0.20;0.10;;;;;;;2.62;100.00;100631.59;5055889;28;20450;-49
2022/04/11 02:20:53;;;;;;;0.20;0.10;;;;;;;2.69;100.00;100638.63;5047753;28;20509;-50
2022/04/11 02:23:21;;;;;;;0.20;0.20;;;;;;;2.76;100.00;100634.34;5054743;28;20455;-50
2022/04/11 02:25:47;;;;;;;0.20;0.10;;;;;;;2.28;100.00;100626.00;5055849;28;20491;-50
2022/04/11 02:28:14;;;;;;;0.20;0.10;;;;;;;2.24;100.00;100628.59;5055814;28;20496;-49
2022/04/11 02:30:40;;;;;;;0.20;0.10;;;;;;;1.98;100.00;100629.16;5055452;28;20499;-49
2022/04/11 02:33:08;;;;;;;0.20;0.10;;;;;;;2.26;100.00;100626.84;5055539;28;20442;-50
2022/04/11 02:35:34;;;;;;;0.30;0.30;;;;;;;2.41;100.00;100624.38;5053168;28;20466;-50
2022/04/11 02:38:01;;;;;;;0.20;0.10;;;;;;;2.41;100.00;100621.75;5029375;28;20447;-49
2022/04/11 02:40:27;;;;;;;0.30;0.20;;;;;;;2.61;100.00;100624.59;5056516;28;20540;-49
2022/04/11 02:42:54;;;;;;;0.20;0.17;;;;;;;2.72;100.00;100617.66;5047331;28;20520;-49
2022/04/11 02:45:21;;;;;;;0.30;0.20;;;;;;;2.77;100.00;100620.34;5055446;28;20495;-50
2022/04/11 02:47:47;;;;;;;0.20;0.10;;;;;;;2.73;100.00;100614.16;5054880;28;20973;-50
2022/04/11 02:50:14;;;;;;;0.20;0.10;;;;;;;2.78;100.00;100617.72;5052487;28;20509;-49
2022/04/11 02:52:41;;;;;;;0.20;0.10;;;;;;;2.81;100.00;100604.63;5055453;28;20450;-49
2022/04/11 02:55:08;;;;;;;0.20;0.10;;;;;;;2.85;100.00;100608.13;5054994;28;20497;-50
2022/04/11 02:57:37;;;;;;;0.20;0.10;;;;;;;2.65;100.00;100615.88;5055082;28;20798;-49
2022/04/11 03:00:10;;;;;;;0.20;0.10;;;;;;;2.67;100.00;100609.75;5054729;28;20943;-50
2022/04/11 03:02:37;;;;;;;0.40;0.40;;;;;;;2.63;100.00;100609.72;5054984;28;20466;-50
2022/04/11 03:05:04;;;;;;;0.20;0.10;;;;;;;2.52;100.00;100606.13;5054545;28;21026;-50
2022/04/11 03:07:31;;;;;;;0.20;0.20;;;;;;;2.40;100.00;100603.38;5054778;28;20451;-50
2022/04/11 03:09:58;;;;;;;0.20;0.10;;;;;;;2.56;100.00;100606.16;5054674;28;20446;-50
2022/04/11 03:12:25;;;;;;;0.20;0.20;;;;;;;2.48;100.00;100609.59;5054520;28;20504;-49
2022/04/11 03:14:51;;;;;;;0.20;0.10;;;;;;;2.48;100.00;100605.22;5054142;28;20469;-50
2022/04/11 03:17:18;;;;;;;0.23;0.17;;;;;;;2.55;100.00;100599.16;5054953;28;20504;-49
2022/04/11 03:19:45;;;;;;;0.30;0.30;;;;;;;2.62;100.00;100602.72;5054487;28;20459;-50
2022/04/11 03:22:12;;;;;;;0.20;0.20;;;;;;;2.61;100.00;100588.72;5045044;28;20451;-49
2022/04/11 03:24:39;;;;;;;0.20;0.10;;;;;;;2.79;100.00;100589.72;5053993;28;20534;-49
2022/04/11 03:27:05;;;;;;;0.20;0.10;;;;;;;2.74;100.00;100588.78;5054378;28;20443;-50
2022/04/11 03:29:32;;;;;;;0.50;0.50;;;;;;;2.68;100.00;100592.25;5041325;28;20524;-50
2022/04/11 03:31:58;;;;;;;0.20;0.10;;;;;;;2.74;100.00;100599.28;5054718;28;20447;-50
2022/04/11 03:34:25;;;;;;;0.43;0.43;;;;;;;2.66;100.00;100592.25;5054572;28;20477;-49
2022/04/11 03:36:52;;;;;;;0.20;0.10;;;;;;;2.64;100.00;100593.13;5052222;28;20471;-50
2022/04/11 03:39:19;;;;;;;0.20;0.10;;;;;;;2.74;100.00;100583.53;5054485;28;21005;-49
2022/04/11 03:41:46;;;;;;;0.20;0.17;;;;;;;2.59;100.00;100587.81;5047683;28;20463;-49
2022/04/11 03:44:13;;;;;;;0.20;0.10;;;;;;;2.57;100.00;100588.66;5051896;28;20568;-50
2022/04/11 03:46:39;;;;;;;0.20;0.10;;;;;;;2.53;100.00;100582.53;5054308;28;20541;-50
2022/04/11 03:49:06;;;;;;;0.20;0.10;;;;;;;2.52;100.00;100588.63;5053671;28;20451;-50
2022/04/11 03:51:33;;;;;;;0.20;0.10;;;;;;;2.53;100.00;100590.38;5051328;28;20560;-49
2022/04/11 03:54:00;;;;;;;0.20;0.10;;;;;;;2.46;100.00;100591.19;5053938;28;20450;-50
2022/04/11 03:56:27;;;;;;;0.30;0.20;;;;;;;2.37;100.00;100583.25;5053622;28;20991;-49
2022/04/11 03:58:53;;;;;;;0.20;0.13;;;;;;;2.27;100.00;100584.91;5053971;28;20455;-49
2022/04/11 04:01:20;;;;;;;0.20;0.10;;;;;;;2.24;100.00;100589.25;5053758;28;20454;-49
2022/04/11 04:03:47;;;;;;;0.20;0.10;;;;;;;2.22;100.00;100583.09;5053476;28;20465;-50
2022/04/11 04:06:13;;;;;;;0.20;0.10;;;;;;;2.28;100.00;100573.53;5053355;28;20991;-49
2022/04/11 04:08:40;;;;;;;0.20;0.10;;;;;;;2.07;100.00;100582.09;5053552;28;20873;-50
2022/04/11 04:11:07;;;;;;;0.20;0.10;;;;;;;2.01;100.00;100578.50;5054074;28;20496;-49
2022/04/11 04:13:36;;;;;;;0.20;0.10;;;;;;;1.91;100.00;100581.88;5053460;28;20451;-50
2022/04/11 04:16:03;;;;;;;0.60;0.60;;;;;;;2.11;100.00;100582.13;5053624;28;20844;-49
2022/04/11 04:18:30;;;;;;;0.97;0.97;;;;;;;1.97;100.00;100588.09;5053990;28;20545;-50
2022/04/11 04:20:57;;;;;;;0.20;0.10;;;;;;;1.71;100.00;100582.56;5044460;28;20452;-49
2022/04/11 04:23:24;;;;;;;0.20;0.10;;;;;;;1.76;100.00;100575.59;5052855;28;20455;-49
2022/04/11 04:25:51;;;;;;;0.30;0.10;;;;;;;1.78;100.00;100578.25;5053524;28;20494;-50
2022/04/11 04:28:18;;;;;;;0.20;0.13;;;;;;;1.72;100.00;100575.56;5053491;28;20451;-49
2022/04/11 04:30:49;;;;;;;0.20;0.10;;;;;;;1.58;100.00;100570.16;5053595;28;20517;-49
2022/04/11 04:33:16;;;;;;;0.33;0.33;;;;;;;1.42;100.00;100571.72;5053282;28;20454;-50
2022/04/11 04:35:43;;;;;;;0.20;0.10;;;;;;;1.46;100.00;100570.00;5050810;28;20472;-50
2022/04/11 04:38:09;;;;;;;0.20;0.10;;;;;;;1.41;100.00;100575.19;5053265;28;20447;-50
2022/04/11 04:40:36;;;;;;;0.20;0.10;;;;;;;1.57;100.00;100565.78;5053173;28;20451;-50
2022/04/11 04:43:04;;;;;;;0.20;0.10;;;;;;;1.62;100.00;100564.09;5044056;28;20873;-50
2022/04/11 04:45:31;;;;;;;0.20;0.10;;;;;;;1.46;100.00;100567.38;5052764;28;20578;-50
2022/04/11 04:47:58;;;;;;;0.20;0.10;;;;;;;1.35;100.00;100566.38;5052925;28;20966;-50
2022/04/11 04:50:24;;;;;;;0.20;0.10;;;;;;;1.34;100.00;100567.22;5050495;28;20462;-50
2022/04/11 04:52:51;;;;;;;0.20;0.10;;;;;;;1.39;100.00;100571.69;5052990;28;20496;-50
2022/04/11 04:55:17;;;;;;;0.20;0.20;;;;;;;1.31;100.00;100564.56;5052713;28;20529;-50
2022/04/11 04:57:44;;;;;;;0.20;0.10;;;;;;;1.34;100.00;100569.84;5053189;28;20446;-49
2022/04/11 05:00:11;;;;;;;0.20;0.10;;;;;;;1.45;100.00;100569.13;5052780;28;20472;-50
2022/04/11 05:02:38;;;;;;;0.20;0.20;;;;;;;1.41;100.00;100564.72;5052850;28;20451;-50
2022/04/11 05:05:10;;;;;;;0.20;0.10;;;;;;;1.43;100.00;100563.00;5052756;28;20498;-49
2022/04/11 05:07:37;;;;;;;0.20;0.10;;;;;;;1.49;100.00;100572.66;5053045;28;20443;-50
2022/04/11 05:10:09;;;;;;;0.20;0.10;;;;;;;1.52;100.00;100564.88;5052030;28;20533;-50
2022/04/11 05:12:43;;;;;;;0.20;0.10;;;;;;;1.42;100.00;100569.09;5053204;28;20985;-50
2022/04/11 05:15:11;;;;;;;0.20;0.20;;;;;;;1.41;100.00;100571.69;5053072;28;20531;-50
2022/04/11 05:17:38;;;;;;;0.20;0.10;;;;;;;1.62;100.00;100569.34;5052892;28;20450;-50
2022/04/11 05:20:07;;;;;;;0.20;0.10;;;;;;;1.76;100.00;100578.22;5050719;28;20799;-50
2022/04/11 05:22:34;;;;;;;0.30;0.20;;;;;;;2.10;100.00;100575.13;5045731;28;20454;-50
2022/04/11 05:25:00;;;;;;;0.20;0.10;;;;;;;2.14;100.00;100579.53;5052343;28;20540;-50
2022/04/11 05:27:27;;;;;;;0.30;0.20;;;;;;;2.36;100.00;100582.38;5035188;28;20450;-50
2022/04/11 05:29:53;;;;;;;5.60;1.33;;;;;;;2.75;100.00;100587.97;5052391;28;20959;-50
2022/04/11 05:32:20;;;;;;;0.20;0.13;;;;;;;2.90;100.00;100578.44;5053057;28;20455;-50
2022/04/11 05:34:46;;;;;;;0.20;0.13;;;;;;;2.86;100.00;100581.00;5052054;28;20443;-50
2022/04/11 05:37:13;;;;;;;0.50;0.50;;;;;;;3.16;100.00;100589.13;5050449;28;20516;-50
2022/04/11 05:39:40;;;;;;;0.30;0.20;;;;;;;3.52;100.00;100583.16;5052461;28;20451;-50
2022/04/11 05:42:08;;;;;;;0.20;0.10;;;;;;;3.86;100.00;100588.59;5042960;28;20501;-50
2022/04/11 05:44:34;;;;;;;0.20;0.10;;;;;;;4.08;98.78;100584.25;5052422;28;20501;-50
2022/04/11 05:47:01;;;;;;;0.20;0.10;;;;;;;4.35;98.01;100581.66;5052085;28;20447;-50
2022/04/11 05:49:28;;;;;;;0.20;0.10;;;;;;;4.66;96.89;100584.31;5052258;28;20457;-50
2022/04/11 05:51:54;;;;;;;0.20;0.20;;;;;;;4.73;96.41;100579.06;5049418;28;20877;-50
2022/04/11 05:54:21;;;;;;;0.20;0.20;;;;;;;4.70;96.38;100589.59;5052101;28;20828;-50
2022/04/11 05:56:48;;;;;;;0.20;0.10;;;;;;;4.79;97.59;100583.44;5051541;28;20528;-50
2022/04/11 05:59:14;;;;;;;0.20;0.20;;;;;;;4.43;99.13;100590.47;5052185;28;20504;-50
2022/04/11 06:01:41;;;;;;;0.67;0.67;;;;;;;4.35;100.00;100593.94;5051981;28;20450;-50
2022/04/11 06:04:08;;;;;;;0.20;0.10;;;;;;;4.46;100.00;100587.81;5034838;28;20446;-50
2022/04/11 06:06:35;;;;;;;0.20;0.20;;;;;;;4.52;100.00;100599.22;5051490;28;20571;-51
2022/04/11 06:09:04;;;;;;;0.20;0.20;;;;;;;4.45;100.00;100604.50;5052232;28;20481;-50
2022/04/11 06:11:31;;;;;;;0.20;0.10;;;;;;;4.58;100.00;100594.84;5051522;28;20497;-50
2022/04/11 06:13:57;;;;;;;0.30;0.20;;;;;;;4.70;100.00;100599.25;5051638;28;20850;-50
2022/04/11 06:16:24;;;;;;;0.50;0.50;;;;;;;4.82;100.00;100601.91;5051671;28;20520;-50
2022/04/11 06:18:51;;;;;;;0.60;0.60;;;;;;;4.67;100.00;100597.50;5051922;28;20450;-50
2022/04/11 06:21:17;;;;;;;0.20;0.10;;;;;;;4.69;100.00;100590.47;5042936;28;20497;-50
2022/04/11 06:23:44;;;;;;;0.20;0.20;;;;;;;4.67;100.00;100586.97;5055840;28;20455;-50
2022/04/11 06:26:10;;;;;;;0.30;0.20;;;;;;;4.55;100.00;100586.97;5054927;28;20518;-50
2022/04/11 06:28:37;;;;;;;0.30;0.20;;;;;;;4.78;100.00;100581.69;5055781;28;20447;-50
2022/04/11 06:31:03;;;;;;;2.10;1.27;;;;;;;4.82;100.00;100586.09;5055314;28;20881;-50
2022/04/11 06:33:30;;;;;;;1.90;0.60;;;;;;;4.85;100.00;100583.44;5055342;28;20456;-50
2022/04/11 06:36:00;;;;;;;0.20;0.17;;;;;;;4.99;100.00;100580.81;5053251;28;20454;-50
2022/04/11 06:38:27;;;;;;;0.20;0.10;;;;;;;4.75;100.00;100573.78;5055196;28;20450;-50
2022/04/11 06:40:55;;;;;;;0.30;0.20;;;;;;;4.93;100.00;100583.44;5055249;28;20481;-50
2022/04/11 06:43:22;;;;;;;0.20;0.10;;;;;;;5.02;100.00;100584.31;5037167;28;20804;-50
2022/04/11 06:45:49;;;;;;;0.30;0.20;;;;;;;5.11;100.00;100583.44;5054975;28;20891;-50
2022/04/11 06:48:15;;;;;;;0.40;0.40;;;;;;;4.91;100.00;100574.66;5055404;28;20446;-50
2022/04/11 06:50:43;;;;;;;0.20;0.20;;;;;;;4.93;100.00;100576.41;5052499;28;20446;-50
2022/04/11 06:53:09;;;;;;;0.30;0.30;;;;;;;5.00;100.00;100572.91;5055114;28;20500;-50
2022/04/11 06:55:36;;;;;;;0.20;0.10;;;;;;;5.24;100.00;100571.09;5054974;28;20984;-50
2022/04/11 06:58:03;;;;;;;0.30;0.10;;;;;;;5.28;100.00;100568.44;5054684;28;20447;-50
2022/04/11 07:00:29;;;;;;;0.30;0.20;;;;;;;5.40;100.00;100578.09;5054512;28;20474;-50
2022/04/11 07:02:56;;;;;;;0.20;0.20;;;;;;;5.34;100.00;100576.34;5054643;28;20458;-50
2022/04/11 07:05:23;;;;;;;0.23;0.20;;;;;;;5.46;100.00;100571.91;5054249;28;20999;-50
2022/04/11 07:07:49;;;;;;;0.20;0.10;;;;;;;5.52;100.00;100570.13;5054330;28;20442;-50
2022/04/11 07:10:16;;;;;;;0.20;0.20;;;;;;;5.63;100.00;100563.06;5037231;28;20450;-51
2022/04/11 07:12:42;;;;;;;2.00;1.33;;;;;;;5.86;100.00;100564.69;5054444;28;20455;-52
2022/04/11 07:15:09;;;;;;;2.57;2.37;;;;;;;5.91;100.00;100562.97;5054090;28;20882;-52
2022/04/11 07:17:36;;;;;;;0.23;0.10;;;;;;;5.92;100.00;100562.09;5054159;28;20446;-51
2022/04/11 07:20:03;;;;;;;0.30;0.20;;;;;;;5.88;100.00;100568.22;5052619;28;20516;-51
2022/04/11 07:22:29;;;;;;;0.67;0.67;;;;;;;6.28;100.00;100560.09;5028273;28;20459;-52
2022/04/11 07:24:56;;;;;;;0.30;0.10;;;;;;;6.06;100.00;100560.25;5045647;28;20471;-52
2022/04/11 07:27:22;;;;;;;0.30;0.20;;;;;;;6.21;100.00;100562.78;5054363;28;20497;-52
2022/04/11 07:29:49;;;;;;;0.30;0.20;;;;;;;6.48;100.00;100558.19;5053727;28;20509;-51
2022/04/11 07:32:16;;;;;;;0.30;0.20;;;;;;;6.93;98.92;100558.69;5053523;28;20454;-52
2022/04/11 07:34:42;;;;;;;0.30;0.20;;;;;;;6.95;99.19;100554.25;5053966;28;20450;-52
2022/04/11 07:37:11;;;;;;;1.00;1.00;;;;;;;7.29;98.39;100555.69;5052410;28;20587;-52
2022/04/11 07:39:38;;;;;;;0.53;0.53;;;;;;;7.32;97.64;100547.72;5053873;28;20447;-52
2022/04/11 07:42:04;;;;;;;0.53;0.53;;;;;;;7.27;97.34;100551.31;5044248;28;20452;-52
2022/04/11 07:44:31;;;;;;;0.30;0.20;;;;;;;7.31;98.24;100551.25;5053780;28;20466;-51
2022/04/11 07:46:58;;;;;;;0.30;0.20;;;;;;;7.36;97.78;100544.13;5053831;28;20534;-51
2022/04/11 07:49:24;;;;;;;0.60;0.60;;;;;;;7.47;96.83;100538.72;5053561;28;20504;-52
2022/04/11 07:51:51;;;;;;;0.30;0.17;;;;;;;7.08;98.53;100542.69;5051327;28;20451;-53
2022/04/11 07:54:17;;;;;;;0.30;0.20;;;;;;;7.54;97.70;100545.72;5053353;28;20447;-53
2022/04/11 07:56:44;;;;;;;0.30;0.20;;;;;;;7.54;96.90;100537.78;5053377;28;20463;-53
2022/04/11 07:59:11;;;;;;;0.30;0.20;;;;;;;8.03;97.03;100537.09;5053190;28;20505;-52
2022/04/11 08:01:37;;;;;;;0.30;0.20;;;;;;;7.90;97.28;100539.03;5053323;28;20936;-53
2022/04/11 08:04:04;;;;;;;0.30;0.20;;;;;;;7.93;97.40;100546.06;5053275;28;20453;-52
2022/04/11 08:06:31;;;;;;;0.40;0.30;;;;;;;8.06;94.60;100545.00;5052810;28;20522;-52
2022/04/11 08:08:57;;;;;;;0.30;0.20;;;;;;;8.38;95.14;100541.91;5053037;28;20463;-52
2022/04/11 08:11:25;;;;;;;1.57;1.57;;;;;;;8.47;94.92;100544.41;5053208;28;20446;-52
2022/04/11 08:13:52;;;;;;;0.40;0.30;;;;;;;8.71;92.28;100540.47;5053011;28;20505;-52
2022/04/11 08:16:18;;;;;;;0.30;0.20;;;;;;;8.82;92.89;100540.31;5053007;28;20529;-52
2022/04/11 08:18:45;;;;;;;0.40;0.20;;;;;;;8.76;92.14;100537.75;5053178;28;20573;-52
2022/04/11 08:21:12;;;;;;;0.73;0.70;;;;;;;8.80;91.67;100537.69;5043499;28;20447;-53
2022/04/11 08:23:38;;;;;;;0.30;0.20;;;;;;;9.20;92.48;100527.22;5052961;28;20508;-52
2022/04/11 08:26:05;;;;;;;0.30;0.20;;;;;;;9.27;91.42;100522.66;5052565;28;20495;-53
2022/04/11 08:28:32;;;;;;;0.87;0.87;;;;;;;9.41;87.94;100525.03;5053078;28;20454;-53
2022/04/11 08:30:58;;;;;;;1.03;0.93;;;;;;;9.66;86.95;100522.78;5052469;28;20473;-53
2022/04/11 08:33:25;;;;;;;0.30;0.20;;;;;;;9.75;85.40;100519.94;5052946;28;20446;-52
2022/04/11 08:35:52;;;;;;;0.30;0.20;;;;;;;9.94;83.38;100515.94;5050244;28;20541;-53
2022/04/11 08:38:19;;;;;;;0.30;0.20;;;;;;;10.03;79.77;100521.06;5052634;28;20454;-52
2022/04/11 08:40:46;;;;;;;0.30;0.20;;;;;;;9.97;79.01;100521.19;5052273;28;20464;-52
2022/04/11 08:43:14;;;;;;;0.30;0.20;;;;;;;10.10;77.73;100513.81;5042971;28;20508;-53
2022/04/11 08:45:40;;;;;;;0.30;0.20;;;;;;;10.15;78.88;100509.28;5051627;28;20495;-52
2022/04/11 08:48:08;;;;;;;0.30;0.20;;;;;;;10.46;77.39;100522.75;5052465;28;20587;-52
2022/04/11 08:50:35;;;;;;;0.30;0.20;;;;;;;10.44;80.47;100513.06;5049670;28;20478;-53
2022/04/11 08:53:02;;;;;;;0.30;0.20;;;;;;;10.19;83.12;100513.63;5052534;28;20451;-53
2022/04/11 08:55:28;;;;;;;0.30;0.20;;;;;;;10.76;82.20;100507.81;5051841;28;20528;-53
2022/04/11 08:57:58;;;;;;;0.30;0.20;;;;;;;10.44;83.20;100505.97;5052410;28;20450;-52
2022/04/11 09:00:25;;;;;;;0.30;0.20;;;;;;;10.59;82.15;100504.72;5052364;28;20465;-52
2022/04/11 09:02:51;;;;;;;0.30;0.30;;;;;;;10.57;79.45;100503.88;5052463;28;20450;-52
2022/04/11 09:05:23;;;;;;;0.60;0.60;;;;;;;10.65;82.06;100501.88;5051800;28;20480;-53
2022/04/11 09:07:53;;;;;;;0.37;0.30;;;;;;;10.82;76.09;100496.13;5051882;28;20916;-52
2022/04/11 09:10:22;;;;;;;0.30;0.30;;;;;;;11.17;77.36;100492.53;5052255;28;20442;-54
2022/04/11 09:12:52;;;;;;;0.33;0.20;;;;;;;11.08;74.88;100496.31;5052188;28;20459;-53
2022/04/11 09:15:20;;;;;;;0.30;0.20;;;;;;;11.03;74.58;100498.22;5034456;28;20478;-53
2022/04/11 09:17:47;;;;;;;0.30;0.20;;;;;;;11.09;73.24;100498.03;5052132;28;20466;-53
2022/04/11 09:20:17;;;;;;;0.30;0.20;;;;;;;11.22;74.12;100495.91;5022590;28;20502;-52
2022/04/11 09:22:44;;;;;;;0.30;0.20;;;;;;;11.45;73.33;100497.94;5045450;28;20512;-52
2022/04/11 09:25:15;;;;;;;0.30;0.20;;;;;;;11.28;75.35;100496.63;5052781;28;20530;-52
2022/04/11 09:27:43;;;;;;;0.30;0.20;;;;;;;11.44;70.61;100491.75;5051796;28;20490;-53
2022/04/11 09:30:24;;;;;;;0.30;0.20;;;;;;;11.67;68.10;100488.41;5051871;28;20447;-53
2022/04/11 09:32:57;;;;;;;0.30;0.20;;;;;;;11.78;68.56;100474.75;5051920;28;20472;-53
2022/04/11 09:35:25;;;;;;;0.30;0.20;;;;;;;11.87;68.22;100477.19;5051327;28;20524;-52
2022/04/11 09:38:06;;;;;;;0.50;0.50;;;;;;;11.86;68.25;100472.78;5050269;28;20443;-53
2022/04/11 09:40:50;;;;;;;0.30;0.20;;;;;;;11.96;67.67;100468.91;5051691;28;20450;-53
2022/04/11 09:43:27;;;;;;;0.30;0.20;;;;;;;12.00;65.98;100472.34;5042180;28;20801;-52
2022/04/11 09:45:55;;;;;;;0.37;0.27;;;;;;;12.43;65.34;100469.16;5051542;28;20529;-53
2022/04/11 09:48:27;;;;;;;0.40;0.37;;;;;;;12.12;62.63;100470.16;5034042;28;20451;-52
2022/04/11 09:50:56;;;;;;;0.40;0.30;;;;;;;12.48;61.84;100467.22;5031392;28;20490;-53
2022/04/11 09:53:34;;;;;;;0.30;0.20;;;;;;;12.60;60.42;100468.59;5051372;28;20451;-53
2022/04/11 09:56:05;;;;;;;0.30;0.20;;;;;;;12.69;59.95;100469.16;5053542;28;20475;-53
2022/04/11 09:58:37;;;;;;;0.60;0.60;;;;;;;12.57;59.84;100453.56;5055599;28;20443;-52
2022/04/11 10:01:05;;;;;;;0.30;0.20;;;;;;;12.67;61.05;100448.81;5055602;28;20447;-52
2022/04/11 10:03:32;;;;;;;0.30;0.20;;;;;;;12.15;57.97;100448.75;5055327;28;21002;-53
2022/04/11 10:06:02;;;;;;;1.07;0.83;;;;;;;12.36;57.94;100439.19;5037509;28;20501;-53
2022/04/11 10:08:31;;;;;;;0.30;0.20;;;;;;;12.49;58.10;100436.09;5055301;28;20446;-53
2022/04/11 10:10:58;;;;;;;0.30;0.20;;;;;;;12.63;58.18;100439.16;5055144;28;20504;-52
2022/04/11 10:13:25;;;;;;;0.73;0.73;;;;;;;12.60;57.75;100447.25;5055120;28;20513;-53
2022/04/11 10:15:52;;;;;;;0.30;0.20;;;;;;;12.10;57.82;100437.38;5055470;28;20835;-53
2022/04/11 10:18:23;;;;;;;0.30;0.20;;;;;;;12.40;57.89;100434.63;5055278;28;20500;-52
2022/04/11 10:20:52;;;;;;;0.30;0.20;;;;;;;12.76;58.35;100429.81;5047470;28;20498;-52
2022/04/11 10:24:07;;;;;;;0.30;0.20;;;;;;;13.09;56.68;100422.38;5034040;28;20453;-54
2022/04/11 10:26:53;;;;;;;0.30;0.20;;;;;;;13.15;56.47;100426.59;5054852;28;20548;-54
2022/04/11 10:29:38;;;;;;;0.30;0.20;;;;;;;13.17;55.68;100428.31;5055530;28;20442;-53
2022/04/11 10:32:13;;;;;;;0.30;0.20;;;;;;;13.42;56.17;100424.75;5055593;28;20499;-54
2022/04/11 10:35:03;;;;;;;1.00;0.73;;;;;;;13.09;54.99;100421.50;5054595;28;20450;-53
2022/04/11 10:37:39;;;;;;;0.30;0.20;;;;;;;13.29;56.16;100419.91;5035565;28;20441;-54
2022/04/11 10:40:19;;;;;;;0.30;0.20;;;;;;;13.57;56.42;100421.50;5054771;28;20450;-53
2022/04/11 10:42:58;;;;;;;0.30;0.20;;;;;;;13.69;57.20;100415.66;5045567;28;20457;-54
2022/04/11 10:45:34;;;;;;;0.40;0.37;;;;;;;13.62;56.11;100406.16;5054530;28;20470;-54
2022/04/11 10:48:03;;;;;;;0.30;0.20;;;;;;;13.76;55.73;100408.28;5055272;28;20535;-54
2022/04/11 10:50:37;;;;;;;0.30;0.20;;;;;;;13.33;54.26;100408.16;5052191;28;20448;-53
2022/04/11 10:53:23;;;;;;;0.30;0.20;;;;;;;13.48;55.40;100400.50;5055060;28;20821;-53
2022/04/11 10:56:02;;;;;;;0.30;0.20;;;;;;;13.72;55.77;100379.97;5054878;28;20501;-54
2022/04/11 10:58:42;;;;;;;0.30;0.20;;;;;;;13.87;55.45;100374.88;5054400;28;20500;-54
2022/04/11 11:01:10;;;;;;;0.53;0.53;;;;;;;14.05;55.21;100381.25;5054616;28;20504;-53
2022/04/11 11:03:40;;;;;;;0.30;0.20;;;;;;;13.93;52.96;100379.06;5054452;28;20451;-53
2022/04/11 11:06:22;;;;;;;0.30;0.20;;;;;;;13.46;52.11;100379.19;5054240;28;20499;-54
2022/04/11 11:08:49;;;;;;;0.50;0.50;;;;;;;13.66;52.86;100364.16;5054126;28;20501;-54
2022/04/11 11:11:28;;;;;;;0.30;0.30;;;;;;;13.57;55.13;100358.28;5053993;28;20947;-54
2022/04/11 11:13:56;;;;;;;0.30;0.20;;;;;;;13.75;53.66;100356.66;5054071;28;20909;-53
2022/04/11 11:16:33;;;;;;;0.30;0.20;;;;;;;13.75;51.66;100359.34;5053438;28;20550;-54
2022/04/11 11:19:18;;;;;;;0.30;0.20;;;;;;;13.88;50.32;100362.38;5054369;28;20554;-54
2022/04/11 11:21:53;;;;;;;0.30;0.30;;;;;;;14.29;49.54;100349.94;5044507;28;20528;-54
2022/04/11 11:24:20;;;;;;;1.13;0.83;;;;;;;14.42;49.19;100348.50;5054150;28;20936;-53
2022/04/11 11:26:53;;;;;;;0.30;0.20;;;;;;;14.58;49.13;100343.38;5053928;28;20534;-54
2022/04/11 11:29:33;;;;;;;0.30;0.20;;;;;;;14.13;48.00;100331.03;5054349;28;20483;-54
2022/04/11 11:32:05;;;;;;;0.30;0.20;;;;;;;14.27;49.72;100334.91;5054138;28;20504;-54